Time;durP1;ratioP1;P1;durP2;ratioP2;P2;SDS_P1;SDS_P2;PMS_P1;PMS_P2;Temp;Humidity;BMP_temperature;BMP_pressure;BME280_temperature;BME280_humidity;BME280_pressure;Samples;Min_cycle;Max_cycle;Signal;HPM_P1;HPM_P2
2023/12/07 00:01:22;;;;;;;11.53;7.23;;;;;;;1.78;100.00;146675.34;5011181;28;20233;-55
2023/12/07 00:03:49;;;;;;;17.07;8.13;;;;;;;1.79;100.00;146677.81;5001105;28;20312;-56
2023/12/07 00:06:15;;;;;;;14.87;7.97;;;;;;;1.80;100.00;146680.31;5010783;28;20588;-56
2023/12/07 00:08:42;;;;;;;16.23;8.10;;;;;;;1.80;100.00;146679.03;4998381;28;20236;-55
2023/12/07 00:11:10;;;;;;;16.37;8.13;;;;;;;1.77;100.00;146674.09;5004225;28;20711;-52
2023/12/07 00:13:37;;;;;;;14.30;8.30;;;;;;;1.76;100.00;146670.41;5005903;28;20235;-53
2023/12/07 00:16:04;;;;;;;14.97;8.30;;;;;;;1.77;100.00;146672.88;5008352;28;20227;-55
2023/12/07 00:18:31;;;;;;;14.43;7.93;;;;;;;1.79;100.00;146676.56;4998404;28;20704;-57
2023/12/07 00:20:57;;;;;;;16.47;8.67;;;;;;;1.80;100.00;146680.31;5007853;28;20225;-54
2023/12/07 00:23:24;;;;;;;13.33;7.30;;;;;;;1.85;100.00;146692.69;5006749;28;20232;-56
2023/12/07 00:25:51;;;;;;;13.33;7.53;;;;;;;1.81;100.00;146682.78;5001688;28;20239;-57
2023/12/07 00:28:19;;;;;;;13.90;7.60;;;;;;;1.81;100.00;146682.78;5011230;28;20223;-56
2023/12/07 00:30:45;;;;;;;12.93;7.73;;;;;;;1.83;100.00;146687.72;5006066;28;20567;-57
2023/12/07 00:33:12;;;;;;;13.47;7.90;;;;;;;1.87;100.00;146696.38;5003485;28;20286;-56
2023/12/07 00:35:39;;;;;;;14.10;7.23;;;;;;;1.90;100.00;146705.06;5005578;28;20243;-54
2023/12/07 00:38:08;;;;;;;13.37;7.30;;;;;;;1.86;100.00;146695.16;5002173;28;20251;-57
2023/12/07 00:40:36;;;;;;;12.47;7.30;;;;;;;1.83;100.00;146687.72;5004862;28;20696;-55
2023/12/07 00:43:03;;;;;;;12.40;7.53;;;;;;;1.84;100.00;146690.22;5004587;28;20236;-56
2023/12/07 00:45:31;;;;;;;15.43;8.60;;;;;;;1.82;100.00;146684.00;5007473;28;20249;-56
2023/12/07 00:47:58;;;;;;;18.63;8.90;;;;;;;1.85;100.00;146692.69;5004319;28;20268;-54
2023/12/07 00:50:24;;;;;;;16.97;8.27;;;;;;;1.90;100.00;146703.81;5003293;28;20224;-54
2023/12/07 00:52:51;;;;;;;16.80;8.47;;;;;;;1.90;100.00;146705.06;5006264;28;20235;-53
2023/12/07 00:55:18;;;;;;;18.63;10.17;;;;;;;1.92;100.00;146708.75;5007183;28;20239;-56
2023/12/07 00:57:44;;;;;;;15.93;7.73;;;;;;;1.95;100.00;146714.97;5004221;28;20237;-56
2023/12/07 01:00:12;;;;;;;13.10;7.43;;;;;;;1.97;100.00;146719.91;5004414;28;20307;-55
2023/12/07 01:02:40;;;;;;;15.77;7.80;;;;;;;1.99;100.00;146724.88;5004817;28;20780;-53
2023/12/07 01:05:08;;;;;;;12.70;8.00;;;;;;;2.00;100.00;146728.56;5006835;28;20222;-55
2023/12/07 01:07:35;;;;;;;17.37;7.67;;;;;;;2.04;100.00;146738.47;4999350;28;20240;-55
2023/12/07 01:10:01;;;;;;;12.50;6.80;;;;;;;2.03;100.00;146736.00;5005081;28;20312;-56
2023/12/07 01:12:28;;;;;;;14.27;6.77;;;;;;;2.01;100.00;146729.81;4999427;28;20227;-56
2023/12/07 01:14:55;;;;;;;13.87;6.80;;;;;;;1.99;100.00;146726.09;5005868;28;20231;-55
2023/12/07 01:17:21;;;;;;;10.50;6.63;;;;;;;1.98;100.00;146723.59;5005618;28;20249;-55
2023/12/07 01:19:49;;;;;;;13.37;7.30;;;;;;;1.91;100.00;146706.28;5002533;28;20584;-55
2023/12/07 01:22:16;;;;;;;13.63;7.00;;;;;;;1.88;100.00;146698.84;5009604;28;20233;-55
2023/12/07 01:24:43;;;;;;;18.20;9.17;;;;;;;1.83;100.00;146687.72;5001832;28;20225;-56
2023/12/07 01:27:10;;;;;;;16.30;6.70;;;;;;;1.81;100.00;146681.53;5007831;28;20735;-54
2023/12/07 01:29:36;;;;;;;12.83;7.17;;;;;;;1.78;100.00;146675.34;5005193;28;20224;-55
2023/12/07 01:32:04;;;;;;;15.97;6.63;;;;;;;1.74;100.00;146666.66;5009451;28;20239;-54
2023/12/07 01:34:30;;;;;;;9.67;5.87;;;;;;;1.65;100.00;146644.38;5009399;28;20220;-53
2023/12/07 01:36:58;;;;;;;10.53;6.47;;;;;;;1.61;100.00;146635.75;5000601;28;20224;-55
2023/12/07 01:39:25;;;;;;;11.60;6.33;;;;;;;1.54;100.00;146617.19;5005592;28;20220;-56
2023/12/07 01:41:52;;;;;;;13.23;6.53;;;;;;;1.54;100.00;146617.19;5003714;28;20244;-54
2023/12/07 01:44:19;;;;;;;12.70;6.60;;;;;;;1.50;100.00;146608.50;5006321;28;20747;-56
2023/12/07 01:46:46;;;;;;;8.17;6.10;;;;;;;1.46;100.00;146598.63;5004219;28;20699;-53
2023/12/07 01:49:13;;;;;;;15.50;7.00;;;;;;;1.32;100.00;146565.22;5003239;28;20216;-56
2023/12/07 01:51:40;;;;;;;13.07;6.03;;;;;;;1.23;100.00;146542.94;4999826;28;20228;-57
2023/12/07 01:54:08;;;;;;;16.50;5.97;;;;;;;1.10;100.00;146512.00;5004079;28;20707;-55
2023/12/07 01:56:35;;;;;;;13.53;6.77;;;;;;;0.96;100.00;146479.88;5005023;28;20709;-56
2023/12/07 01:59:03;;;;;;;12.60;6.17;;;;;;;0.84;100.00;146450.19;5002455;28;20221;-53
2023/12/07 02:01:30;;;;;;;9.83;5.77;;;;;;;0.75;100.00;146429.13;4994580;28;20275;-54
2023/12/07 02:03:56;;;;;;;11.87;6.47;;;;;;;0.66;100.00;146406.88;4999189;28;20256;-54
2023/12/07 02:06:23;;;;;;;11.70;7.10;;;;;;;0.60;100.00;146393.28;5002885;28;20228;-54
2023/12/07 02:08:50;;;;;;;10.40;6.30;;;;;;;0.49;100.00;146367.34;5002998;28;20232;-56
2023/12/07 02:11:18;;;;;;;10.20;6.30;;;;;;;0.38;100.00;146340.13;5003533;28;20324;-53
2023/12/07 02:13:45;;;;;;;11.87;5.43;;;;;;;0.34;100.00;146330.25;5001118;28;20270;-55
2023/12/07 02:16:18;;;;;;;11.50;6.13;;;;;;;0.30;100.00;146321.56;5009231;28;20751;-53
2023/12/07 02:18:51;;;;;;;10.50;6.47;;;;;;;0.16;100.00;146288.19;5005451;28;20229;-55
2023/12/07 02:21:26;;;;;;;11.33;5.97;;;;;;;0.08;100.00;146269.63;5002893;28;20264;-55
2023/12/07 02:23:54;;;;;;;14.87;6.60;;;;;;;-0.08;100.00;146230.13;5004617;28;20242;-56
2023/12/07 02:26:28;;;;;;;10.40;6.07;;;;;;;-0.12;100.00;146220.22;5005919;28;20622;-54
2023/12/07 02:28:56;;;;;;;9.27;5.43;;;;;;;-0.21;100.00;146200.44;5002187;28;20315;-56
2023/12/07 02:31:23;;;;;;;11.83;5.87;;;;;;;-0.31;100.00;146175.75;5012970;28;20243;-53
2023/12/07 02:33:50;;;;;;;13.17;5.70;;;;;;;-0.39;100.00;146155.97;5000554;28;20246;-55
2023/12/07 02:36:21;;;;;;;10.13;5.37;;;;;;;-0.46;100.00;146141.13;5005442;28;20626;-54
2023/12/07 02:38:49;;;;;;;12.50;6.00;;;;;;;-0.48;100.00;146134.94;4977445;28;20239;-55
2023/12/07 02:41:16;;;;;;;12.73;6.00;;;;;;;-0.64;100.00;146097.91;5006931;28;20761;-53
2023/12/07 02:43:43;;;;;;;11.20;6.43;;;;;;;-0.61;100.00;146104.06;5004255;28;20223;-54
2023/12/07 02:46:11;;;;;;;9.13;5.20;;;;;;;-0.73;100.00;146075.66;5007616;28;20595;-53
2023/12/07 02:48:37;;;;;;;10.10;5.47;;;;;;;-0.72;100.00;146078.13;5005446;28;20238;-56
2023/12/07 02:51:04;;;;;;;10.60;5.77;;;;;;;-0.75;100.00;146071.94;5006611;28;20249;-54
2023/12/07 02:53:31;;;;;;;12.70;6.40;;;;;;;-0.72;100.00;146076.88;5006353;28;20609;-58
2023/12/07 02:55:58;;;;;;;14.07;6.17;;;;;;;-0.77;100.00;146065.78;5007393;28;20228;-54
2023/12/07 02:58:24;;;;;;;15.60;5.87;;;;;;;-0.87;100.00;146042.28;5012171;28;20242;-56
2023/12/07 03:00:51;;;;;;;13.30;6.30;;;;;;;-0.92;100.00;146031.19;5010364;28;22321;-54
2023/12/07 03:03:19;;;;;;;17.43;6.10;;;;;;;-0.91;100.00;146032.41;5008909;28;20253;-55
2023/12/07 03:05:45;;;;;;;11.17;5.70;;;;;;;-0.94;100.00;146025.00;4999218;28;20226;-54
2023/12/07 03:08:12;;;;;;;10.63;6.23;;;;;;;-0.80;100.00;146059.59;5004033;28;20754;-56
2023/12/07 03:10:38;;;;;;;10.63;6.33;;;;;;;-0.85;100.00;146046.00;5006826;28;20246;-53
2023/12/07 03:13:05;;;;;;;11.37;6.17;;;;;;;-0.87;100.00;146042.28;5004863;28;20554;-55
2023/12/07 03:15:32;;;;;;;12.00;6.03;;;;;;;-0.97;100.00;146017.56;5004341;28;20294;-54
2023/12/07 03:17:58;;;;;;;10.97;5.20;;;;;;;-1.00;100.00;146010.16;5008395;28;20637;-56
2023/12/07 03:20:26;;;;;;;10.73;5.63;;;;;;;-0.99;100.00;146012.63;5011498;28;20220;-55
2023/12/07 03:22:53;;;;;;;11.77;6.07;;;;;;;-1.01;100.00;146008.97;5000337;28;20248;-55
2023/12/07 03:25:19;;;;;;;11.33;5.67;;;;;;;-1.11;100.00;145985.50;5009031;28;20236;-53
2023/12/07 03:27:46;;;;;;;9.47;5.57;;;;;;;-1.14;100.00;145976.84;5001536;28;20236;-54
2023/12/07 03:30:13;;;;;;;10.87;5.70;;;;;;;-1.22;100.00;145958.34;5004438;28;20254;-55
2023/12/07 03:32:40;;;;;;;11.90;5.40;;;;;;;-1.23;100.00;145955.88;5002403;28;20232;-53
2023/12/07 03:35:07;;;;;;;9.20;4.83;;;;;;;-1.28;100.00;145943.53;5006573;28;20239;-54
2023/12/07 03:37:35;;;;;;;12.27;5.43;;;;;;;-1.34;100.00;145931.16;5006014;28;20228;-56
2023/12/07 03:40:04;;;;;;;10.67;5.47;;;;;;;-1.34;100.00;145931.16;5012386;28;20239;-54
2023/12/07 03:42:30;;;;;;;10.93;4.87;;;;;;;-1.37;100.00;145922.50;5010394;28;20723;-53
2023/12/07 03:44:57;;;;;;;11.07;5.63;;;;;;;-1.43;100.00;145908.94;5004145;28;20232;-53
2023/12/07 03:47:23;;;;;;;15.20;6.70;;;;;;;-1.47;100.00;145899.06;5012702;28;20522;-56
2023/12/07 03:49:52;;;;;;;11.27;6.23;;;;;;;-1.48;100.00;145897.81;5010308;28;20326;-56
2023/12/07 03:52:18;;;;;;;13.27;6.20;;;;;;;-1.50;100.00;145891.66;5007945;28;20241;-56
2023/12/07 03:54:46;;;;;;;12.03;5.03;;;;;;;-1.45;100.00;145902.75;5001796;28;20244;-56
2023/12/07 03:57:13;;;;;;;11.13;5.17;;;;;;;-1.53;100.00;145884.25;5004714;28;20244;-55
2023/12/07 03:59:39;;;;;;;12.27;5.70;;;;;;;-1.54;100.00;145882.97;5002431;28;20238;-55
2023/12/07 04:02:06;;;;;;;9.13;5.77;;;;;;;-1.60;100.00;145868.22;5009297;28;20242;-56
2023/12/07 04:04:32;;;;;;;17.10;5.17;;;;;;;-1.65;100.00;145855.88;5003610;28;20720;-54
2023/12/07 04:06:59;;;;;;;13.97;5.70;;;;;;;-1.72;100.00;145839.78;5007233;28;20234;-54
2023/12/07 04:09:26;;;;;;;9.53;5.20;;;;;;;-1.65;100.00;145857.09;5005096;28;20240;-53
2023/12/07 04:11:54;;;;;;;11.30;5.60;;;;;;;-1.70;100.00;145843.53;5003263;28;20238;-52
2023/12/07 04:14:20;;;;;;;11.53;5.87;;;;;;;-1.68;100.00;145849.66;5007268;28;20232;-52
2023/12/07 04:16:47;;;;;;;15.30;5.80;;;;;;;-1.62;100.00;145863.28;5003587;28;21994;-53
2023/12/07 04:19:14;;;;;;;10.50;5.57;;;;;;;-1.70;100.00;145844.72;5007904;28;20240;-53
2023/12/07 04:21:40;;;;;;;10.97;5.73;;;;;;;-1.75;100.00;145831.19;5005647;28;20361;-53
2023/12/07 04:24:07;;;;;;;9.40;5.40;;;;;;;-1.80;100.00;145820.03;5004656;28;20257;-56
2023/12/07 04:26:34;;;;;;;9.13;5.17;;;;;;;-1.83;100.00;145812.63;5004997;28;20223;-53
2023/12/07 04:29:02;;;;;;;13.93;5.80;;;;;;;-1.79;100.00;145822.50;5004536;28;20238;-52
2023/12/07 04:31:28;;;;;;;9.83;5.07;;;;;;;-1.80;100.00;145821.31;5262557;22;20238;-54
2023/12/07 04:33:55;;;;;;;13.80;5.87;;;;;;;-1.74;100.00;145834.84;5002046;28;20236;-53
2023/12/07 04:36:21;;;;;;;15.00;5.77;;;;;;;-1.74;100.00;145833.66;5005691;28;20232;-55
2023/12/07 04:38:48;;;;;;;10.27;5.17;;;;;;;-1.70;100.00;145844.72;5002804;28;20568;-55
2023/12/07 04:41:15;;;;;;;10.37;4.77;;;;;;;-1.74;100.00;145834.84;5002942;28;20262;-55
2023/12/07 04:43:41;;;;;;;12.73;5.60;;;;;;;-1.73;100.00;145836.13;5000522;28;20246;-55
2023/12/07 04:46:09;;;;;;;9.97;4.63;;;;;;;-1.74;100.00;145834.84;5005170;28;20697;-52
2023/12/07 04:48:36;;;;;;;12.03;5.53;;;;;;;-1.74;100.00;145833.66;5001891;28;20239;-55
2023/12/07 04:51:02;;;;;;;16.43;5.87;;;;;;;-1.75;100.00;145831.19;5003957;28;20243;-52
2023/12/07 04:53:29;;;;;;;10.10;5.63;;;;;;;-1.81;100.00;145818.84;5004257;28;20241;-55
2023/12/07 04:55:55;;;;;;;10.53;5.13;;;;;;;-1.80;100.00;145820.03;5001571;28;20229;-52
2023/12/07 04:58:22;;;;;;;10.17;4.97;;;;;;;-1.81;100.00;145818.84;5005356;28;20243;-53
2023/12/07 05:00:49;;;;;;;8.77;5.00;;;;;;;-1.83;100.00;145812.63;5001607;28;20231;-53
2023/12/07 05:03:17;;;;;;;10.40;5.00;;;;;;;-1.83;100.00;145812.63;5004921;28;20257;-55
2023/12/07 05:05:43;;;;;;;11.87;6.07;;;;;;;-1.75;100.00;145832.38;5001898;28;20236;-55
2023/12/07 05:08:10;;;;;;;9.43;4.97;;;;;;;-1.72;100.00;145839.78;5004233;28;20251;-54
2023/12/07 05:10:36;;;;;;;10.83;5.23;;;;;;;-1.68;100.00;145848.47;4999872;28;20236;-53
2023/12/07 05:13:03;;;;;;;12.13;5.40;;;;;;;-1.62;100.00;145863.28;5002533;28;20587;-53
2023/12/07 05:15:30;;;;;;;10.90;5.67;;;;;;;-1.72;100.00;145839.78;5004217;28;20225;-55
2023/12/07 05:17:56;;;;;;;9.57;4.73;;;;;;;-1.78;100.00;145824.97;4999377;28;20835;-53
2023/12/07 05:20:26;;;;;;;10.13;5.13;;;;;;;-1.76;100.00;145829.91;5004467;28;20256;-54
2023/12/07 05:22:53;;;;;;;9.53;4.63;;;;;;;-1.64;100.00;145858.34;5001645;28;20586;-54
2023/12/07 05:25:19;;;;;;;11.13;4.80;;;;;;;-1.63;100.00;145862.00;5003365;28;20247;-53
2023/12/07 05:27:46;;;;;;;10.43;5.10;;;;;;;-1.62;100.00;145863.28;5001441;28;20734;-53
2023/12/07 05:30:13;;;;;;;12.90;4.63;;;;;;;-1.66;100.00;145853.41;5004451;28;20323;-53
2023/12/07 05:32:40;;;;;;;8.97;4.90;;;;;;;-1.56;100.00;145876.84;5001377;28;20750;-52
2023/12/07 05:35:07;;;;;;;8.20;5.03;;;;;;;-1.53;100.00;145885.47;5004696;28;20224;-52
2023/12/07 05:37:35;;;;;;;11.47;5.20;;;;;;;-1.38;100.00;145920.03;5001612;28;20232;-55
2023/12/07 05:40:02;;;;;;;11.87;4.70;;;;;;;-1.37;100.00;145922.50;5004204;28;20238;-55
2023/12/07 05:42:29;;;;;;;13.10;5.10;;;;;;;-1.44;100.00;145906.47;5002651;28;20326;-55
2023/12/07 05:44:56;;;;;;;9.70;4.67;;;;;;;-1.54;100.00;145881.78;5001046;28;20243;-55
2023/12/07 05:47:23;;;;;;;11.98;6.72;;;;;;;-1.61;100.00;145864.50;5004020;28;20439;-52
2023/12/07 05:49:49;;;;;;;9.83;5.60;;;;;;;-1.68;100.00;145848.47;4998723;28;20223;-54
2023/12/07 05:52:16;;;;;;;8.37;4.50;;;;;;;-1.73;100.00;145837.31;5002608;28;20251;-52
2023/12/07 05:54:46;;;;;;;7.77;4.43;;;;;;;-1.87;100.00;145802.75;4999317;28;20235;-55
2023/12/07 05:57:13;;;;;;;8.87;4.77;;;;;;;-1.90;100.00;145796.63;5004865;28;20319;-56
2023/12/07 05:59:41;;;;;;;11.87;5.60;;;;;;;-1.91;100.00;145792.88;5000200;28;20573;-53
2023/12/07 06:02:08;;;;;;;9.53;4.93;;;;;;;-1.85;100.00;145807.69;5003761;28;20574;-56
2023/12/07 06:04:34;;;;;;;10.03;5.30;;;;;;;-1.85;100.00;145807.69;5001874;28;20224;-53
2023/12/07 06:07:02;;;;;;;11.00;5.90;;;;;;;-1.86;100.00;145806.50;5005721;28;20591;-54
2023/12/07 06:09:28;;;;;;;7.87;4.73;;;;;;;-1.86;100.00;145805.22;5007286;28;20235;-55
2023/12/07 06:11:56;;;;;;;8.77;5.03;;;;;;;-1.87;100.00;145802.75;5004856;28;20373;-55
2023/12/07 06:14:23;;;;;;;9.57;5.07;;;;;;;-1.93;100.00;145789.22;4978374;28;20723;-53
2023/12/07 06:16:50;;;;;;;11.07;5.23;;;;;;;-1.93;100.00;145790.41;5000442;28;20318;-55
2023/12/07 06:19:17;;;;;;;8.77;4.13;;;;;;;-2.03;100.00;145765.72;5007261;28;20235;-54
2023/12/07 06:21:44;;;;;;;5.80;3.30;;;;;;;-2.16;100.00;145733.69;5003015;28;20235;-53
2023/12/07 06:24:11;;;;;;;7.70;2.93;;;;;;;-2.29;100.00;145704.06;5005897;28;20755;-53
2023/12/07 06:26:37;;;;;;;5.47;3.40;;;;;;;-2.27;100.00;145709.00;4992667;28;20227;-56
2023/12/07 06:29:07;;;;;;;6.00;2.50;;;;;;;-2.32;100.00;145695.41;5006988;28;20224;-54
2023/12/07 06:31:34;;;;;;;5.50;2.93;;;;;;;-2.37;100.00;145685.53;5004641;28;20235;-55
2023/12/07 06:34:01;;;;;;;6.23;3.00;;;;;;;-2.45;100.00;145664.59;5006330;28;20243;-53
2023/12/07 06:36:27;;;;;;;4.83;2.57;;;;;;;-2.31;100.00;145697.88;5007622;28;20714;-55
2023/12/07 06:38:55;;;;;;;8.07;2.90;;;;;;;-2.31;100.00;145699.13;5003663;28;20259;-56
2023/12/07 06:41:22;;;;;;;6.67;3.07;;;;;;;-2.34;100.00;145691.72;4999374;28;20832;-56
2023/12/07 06:43:48;;;;;;;4.97;2.70;;;;;;;-2.40;100.00;145676.91;5003268;28;20239;-57
2023/12/07 06:46:17;;;;;;;4.27;2.47;;;;;;;-2.40;100.00;145676.91;5006873;28;20606;-56
2023/12/07 06:48:43;;;;;;;6.50;2.30;;;;;;;-2.45;100.00;145665.78;5003491;28;20267;-53
2023/12/07 06:51:10;;;;;;;7.33;3.07;;;;;;;-2.45;100.00;145665.78;5006953;28;20714;-54
2023/12/07 06:53:37;;;;;;;5.00;2.23;;;;;;;-2.41;100.00;145675.66;5003587;28;20765;-56
2023/12/07 06:56:03;;;;;;;4.37;2.40;;;;;;;-2.49;100.00;145655.94;5006217;28;20231;-54
2023/12/07 06:58:30;;;;;;;5.10;2.77;;;;;;;-2.54;100.00;145644.84;5006742;28;20232;-54
2023/12/07 07:00:57;;;;;;;7.63;2.20;;;;;;;-2.59;100.00;145631.25;5003816;28;20241;-55
2023/12/07 07:03:25;;;;;;;3.33;2.53;;;;;;;-2.60;100.00;145630.03;5004983;28;20529;-54
2023/12/07 07:05:52;;;;;;;5.33;2.90;;;;;;;-2.60;100.00;145630.03;5000370;28;20690;-53
2023/12/07 07:08:18;;;;;;;12.03;2.60;;;;;;;-2.61;100.00;145627.56;5005411;28;20703;-54
2023/12/07 07:10:45;;;;;;;3.90;2.33;;;;;;;-2.58;100.00;145634.97;5003163;28;20231;-53
2023/12/07 07:13:14;;;;;;;3.57;1.80;;;;;;;-2.65;100.00;145616.50;5004909;28;20218;-53
2023/12/07 07:15:43;;;;;;;4.50;1.90;;;;;;;-2.69;100.00;145607.84;5001631;28;20226;-56
2023/12/07 07:18:09;;;;;;;2.73;1.77;;;;;;;-2.69;100.00;145609.09;5004265;28;20294;-53
2023/12/07 07:20:37;;;;;;;2.90;1.80;;;;;;;-2.64;100.00;145620.16;5003395;28;20219;-56
2023/12/07 07:23:04;;;;;;;2.47;1.57;;;;;;;-2.63;100.00;145622.63;5004595;28;20234;-53
2023/12/07 07:25:30;;;;;;;3.67;1.60;;;;;;;-2.60;100.00;145628.78;5006078;28;20238;-55
2023/12/07 07:27:57;;;;;;;4.83;1.97;;;;;;;-2.55;100.00;145641.13;5001630;28;20235;-53
2023/12/07 07:30:24;;;;;;;3.83;1.73;;;;;;;-2.55;100.00;145642.38;5004816;28;20755;-54
2023/12/07 07:32:51;;;;;;;2.40;1.47;;;;;;;-2.48;100.00;145657.19;5001859;28;20232;-55
2023/12/07 07:35:18;;;;;;;2.03;1.53;;;;;;;-2.44;100.00;145668.25;5005219;28;20742;-54
2023/12/07 07:37:46;;;;;;;3.33;1.23;;;;;;;-2.27;100.00;145709.00;5002445;28;20731;-53
2023/12/07 07:40:13;;;;;;;2.27;1.40;;;;;;;-2.19;100.00;145727.50;5004002;28;20220;-54
2023/12/07 07:42:40;;;;;;;2.90;1.37;;;;;;;-2.09;100.00;145750.91;5001354;28;20228;-52
2023/12/07 07:45:08;;;;;;;2.47;1.37;;;;;;;-2.00;100.00;145773.13;5004449;28;20236;-54
2023/12/07 07:47:35;;;;;;;3.20;1.20;;;;;;;-1.91;100.00;145792.88;5002720;28;20231;-55
2023/12/07 07:50:05;;;;;;;2.47;1.40;;;;;;;-1.79;100.00;145822.50;5004984;28;20231;-52
2023/12/07 07:52:32;;;;;;;2.60;1.40;;;;;;;-1.73;100.00;145836.13;5005343;28;20234;-54
2023/12/07 07:55:00;;;;;;;1.97;1.40;;;;;;;-1.67;100.00;145852.16;5002926;28;20238;-56
2023/12/07 07:57:27;;;;;;;4.50;2.00;;;;;;;-1.71;100.00;145841.06;4987877;28;20274;-54
2023/12/07 07:59:54;;;;;;;16.43;6.10;;;;;;;-1.66;100.00;145853.41;5002169;28;20236;-55
2023/12/07 08:02:21;;;;;;;9.37;5.57;;;;;;;-1.66;100.00;145854.59;5004569;28;20240;-52
2023/12/07 08:04:47;;;;;;;10.83;5.30;;;;;;;-1.56;100.00;145878.03;5001993;28;20232;-54
2023/12/07 08:07:14;;;;;;;7.47;4.33;;;;;;;-1.50;100.00;145891.66;5004352;28;20234;-54
2023/12/07 08:09:41;;;;;;;7.70;5.10;;;;;;;-1.42;100.00;145910.16;5001853;28;20223;-55
2023/12/07 08:12:09;;;;;;;8.63;4.83;;;;;;;-1.32;100.00;145933.63;5004393;28;20243;-53
2023/12/07 08:14:36;;;;;;;8.67;4.90;;;;;;;-1.30;100.00;145939.78;5000474;28;20273;-53
2023/12/07 08:17:03;;;;;;;9.33;4.20;;;;;;;-1.27;100.00;145947.19;5005957;28;20261;-53
2023/12/07 08:19:30;;;;;;;8.23;5.07;;;;;;;-1.20;100.00;145963.28;5005811;28;20689;-55
2023/12/07 08:21:57;;;;;;;5.23;2.80;;;;;;;-1.11;100.00;145985.50;5002297;28;20225;-52
2023/12/07 08:24:25;;;;;;;2.27;1.80;;;;;;;-1.05;100.00;146000.28;5004584;28;20259;-53
2023/12/07 08:26:51;;;;;;;4.30;2.20;;;;;;;-0.96;100.00;146021.31;4999576;28;21619;-55
2023/12/07 08:29:19;;;;;;;4.43;2.37;;;;;;;-0.93;100.00;146028.72;5005280;28;20705;-56
2023/12/07 08:31:46;;;;;;;8.07;2.93;;;;;;;-0.88;100.00;146038.59;5001211;28;20244;-53
2023/12/07 08:34:13;;;;;;;7.80;3.80;;;;;;;-0.81;100.00;146055.91;5005133;28;20232;-52
2023/12/07 08:36:40;;;;;;;4.77;2.70;;;;;;;-0.86;100.00;146044.75;5002252;28;20699;-53
2023/12/07 08:39:09;;;;;;;6.20;3.10;;;;;;;-0.86;100.00;146043.53;5005076;28;20231;-53
2023/12/07 08:41:36;;;;;;;8.90;4.63;;;;;;;-0.89;100.00;146037.34;5001126;28;20232;-52
2023/12/07 08:44:03;;;;;;;10.17;4.33;;;;;;;-0.84;100.00;146048.50;5003856;28;20714;-54
2023/12/07 08:46:31;;;;;;;12.40;6.90;;;;;;;-0.85;100.00;146046.00;5004528;28;20587;-52
2023/12/07 08:48:57;;;;;;;17.83;9.97;;;;;;;-0.88;100.00;146038.59;5001241;28;20235;-55
2023/12/07 08:51:24;;;;;;;31.47;14.93;;;;;;;-0.88;100.00;146038.59;5004844;28;20236;-52
2023/12/07 08:53:51;;;;;;;30.43;15.13;;;;;;;-0.85;100.00;146046.00;5001094;28;20278;-53
2023/12/07 08:56:18;;;;;;;30.80;16.03;;;;;;;-0.86;100.00;146044.75;5004821;28;20310;-53
2023/12/07 08:58:45;;;;;;;30.70;16.90;;;;;;;-0.85;100.00;146046.00;5000794;28;20236;-56
2023/12/07 09:01:12;;;;;;;32.40;16.43;;;;;;;-0.84;100.00;146048.50;5004783;28;20255;-53
2023/12/07 09:03:41;;;;;;;26.27;15.30;;;;;;;-0.84;100.00;146049.69;5000299;28;20302;-54
2023/12/07 09:06:08;;;;;;;30.37;15.30;;;;;;;-0.80;100.00;146058.38;5002385;28;20326;-52
2023/12/07 09:08:35;;;;;;;19.70;12.80;;;;;;;-0.71;100.00;146079.34;5001227;28;20234;-53
2023/12/07 09:11:02;;;;;;;19.00;10.37;;;;;;;-0.78;100.00;146064.53;5003251;28;20243;-54
2023/12/07 09:13:30;;;;;;;11.87;7.07;;;;;;;-0.81;100.00;146057.09;5004354;28;20279;-53
2023/12/07 09:15:57;;;;;;;8.57;4.80;;;;;;;-0.80;100.00;146059.59;5001350;28;20235;-53
2023/12/07 09:18:24;;;;;;;6.87;3.93;;;;;;;-0.76;100.00;146068.25;5004255;28;20604;-54
2023/12/07 09:20:52;;;;;;;6.50;3.50;;;;;;;-0.69;100.00;146084.28;5000320;28;20223;-53
2023/12/07 09:23:19;;;;;;;7.47;4.07;;;;;;;-0.59;100.00;146109.00;5003801;28;20310;-55
2023/12/07 09:25:46;;;;;;;5.87;2.73;;;;;;;-0.48;100.00;146136.19;5000806;28;20579;-53
2023/12/07 09:28:13;;;;;;;2.50;1.90;;;;;;;-0.39;100.00;146157.19;5004503;28;20713;-53
2023/12/07 09:30:39;;;;;;;3.07;2.00;;;;;;;-0.23;100.00;146194.25;5001297;28;20234;-55
2023/12/07 09:33:06;;;;;;;4.73;2.30;;;;;;;-0.08;100.00;146230.13;5003826;28;20250;-53
2023/12/07 09:35:34;;;;;;;4.17;2.60;;;;;;;0.09;100.00;146270.88;5001151;28;20233;-56
2023/12/07 09:38:02;;;;;;;3.40;1.80;;;;;;;0.22;100.00;146301.78;5003361;28;20235;-56
2023/12/07 09:40:29;;;;;;;3.30;1.90;;;;;;;0.31;100.00;146322.81;5007300;28;20220;-55
2023/12/07 09:42:55;;;;;;;5.87;1.60;;;;;;;0.39;100.00;146343.81;5003919;28;20580;-55
2023/12/07 09:45:23;;;;;;;3.57;2.33;;;;;;;0.53;100.00;146375.97;5006473;28;20257;-57
2023/12/07 09:47:51;;;;;;;17.07;8.87;;;;;;;0.62;100.00;146398.22;5004362;28;20263;-53
2023/12/07 09:50:21;;;;;;;20.23;12.80;;;;;;;0.69;100.00;146415.53;5006653;28;20240;-56
2023/12/07 09:52:49;;;;;;;18.40;11.57;;;;;;;0.78;100.00;146435.34;5003077;28;20430;-54
2023/12/07 09:55:18;;;;;;;25.67;16.30;;;;;;;0.86;100.00;146455.13;5006786;28;20232;-53
2023/12/07 09:57:45;;;;;;;28.47;16.27;;;;;;;0.71;100.00;146420.50;5004421;28;20220;-55
2023/12/07 10:00:14;;;;;;;29.87;16.00;;;;;;;0.54;100.00;146379.66;5008004;28;20236;-53
2023/12/07 10:02:42;;;;;;;89.37;16.90;;;;;;;0.29;100.00;146320.34;5003062;28;20591;-55
2023/12/07 10:05:13;;;;;;;40.33;16.97;;;;;;;0.33;100.00;146328.97;5008145;28;20227;-56
2023/12/07 10:07:42;;;;;;;61.80;13.13;;;;;;;0.90;100.00;146463.78;5004881;28;20231;-54
2023/12/07 10:10:11;;;;;;;28.87;15.13;;;;;;;1.39;100.00;146582.53;5007262;28;20616;-52
2023/12/07 10:12:47;;;;;;;145.77;18.40;;;;;;;1.17;100.00;146530.56;5004089;28;20240;-53
2023/12/07 10:16:04;;;;;;;90.33;16.20;;;;;;;0.65;100.00;146405.66;5007322;28;20298;-53
2023/12/07 10:18:30;;;;;;;319.10;20.27;;;;;;;0.06;100.00;146264.69;5004597;28;20228;-55
2023/12/07 10:20:57;;;;;;;281.87;20.23;;;;;;;-0.24;100.00;146191.78;5004914;28;20242;-53
2023/12/07 10:23:25;;;;;;;220.90;20.40;;;;;;;-0.17;100.00;146210.34;4999420;28;20247;-53
2023/12/07 10:25:51;;;;;;;25.30;14.37;;;;;;;0.03;100.00;146256.06;5004226;28;20816;-53
2023/12/07 10:28:19;;;;;;;147.00;17.57;;;;;;;-0.09;100.00;146227.66;5006311;28;20243;-53
2023/12/07 10:30:46;;;;;;;229.63;18.67;;;;;;;-0.42;100.00;146148.53;5002021;28;20223;-56
2023/12/07 10:33:13;;;;;;;170.47;17.80;;;;;;;-0.34;100.00;146168.31;5006063;28;20755;-56
2023/12/07 10:35:40;;;;;;;286.57;20.70;;;;;;;-0.50;100.00;146131.25;5004695;28;20338;-55
2023/12/07 10:38:07;;;;;;;177.83;17.43;;;;;;;-0.32;100.00;146173.25;5006325;28;20592;-56
2023/12/07 10:40:34;;;;;;;86.40;15.20;;;;;;;-0.14;100.00;146216.50;5002724;28;20228;-56
2023/12/07 10:43:05;;;;;;;127.47;17.80;;;;;;;0.06;100.00;146264.69;5006143;28;21046;-53
2023/12/07 10:45:34;;;;;;;70.17;18.17;;;;;;;0.32;100.00;146325.28;5003002;28;20279;-56
2023/12/07 10:48:06;;;;;;;62.58;22.30;;;;;;;0.62;100.00;146396.97;5004661;28;20530;-55
2023/12/07 10:50:36;;;;;;;132.67;20.60;;;;;;;0.60;100.00;146393.28;5003432;28;20688;-53
2023/12/07 10:53:11;;;;;;;52.67;16.90;;;;;;;0.70;100.00;146418.03;5006894;28;20236;-56
2023/12/07 10:55:44;;;;;;;44.90;16.20;;;;;;;0.98;100.00;146484.81;5004711;28;20259;-55
2023/12/07 10:58:12;;;;;;;56.03;15.93;;;;;;;0.95;100.00;146477.41;5007273;28;20672;-55
2023/12/07 11:00:46;;;;;;;90.87;16.97;;;;;;;0.90;100.00;146465.03;5004451;28;20275;-56
2023/12/07 11:03:17;;;;;;;28.43;14.83;;;;;;;1.07;100.00;146504.56;5006697;28;20224;-55
2023/12/07 11:05:45;;;;;;;55.97;15.33;;;;;;;0.85;100.00;146453.88;5004039;28;20228;-55
2023/12/07 11:08:18;;;;;;;33.40;15.43;;;;;;;0.89;100.00;146462.56;5006926;28;20224;-53
2023/12/07 11:10:51;;;;;;;36.87;16.80;;;;;;;0.90;100.00;146463.78;5003766;28;20224;-54
2023/12/07 11:13:21;;;;;;;30.40;16.90;;;;;;;0.80;100.00;146441.50;5005925;28;20232;-55